메인 페이지
METAR-TAF:

METAR-TAF

공항 :

엘알토 국제공항

라파스, 볼리비아

위도: 16-31S, 경도: 068-11W, 고도: 4058m

현재 날씨관측

예보는 59분 전, 23:00시(UTC)에 발표되었습니다.
동북동12kt
온도 10°C
습도 71%
기압 1038 hPa
시정 10km 이상
고도 1300ft 상공 구름 보통
고도 1700ft 상공 구름 조금, 적란운.
고도 7000ft 상공 구름 보통
고도 20000ft 상공 구름 많음

METAR: SLLP 252300Z 06012KT 9999 SCT013 FEW017CB SCT070 BKN200 10/05 Q1038

시각: 19:59 (23:59 UTC)

예보

예보는 1 시간 59분 전, 22:00시(UTC)에 발표되었습니다.
예보 대상 시간: 26일 00시부터 26일 24시까지 (UTC)
7kt
시정 10km 이상
고도 1500ft 상공 구름 보통
고도 1700ft 상공 구름 조금, 적란운.
고도 7000ft 상공 구름 많음
전환 중
26일 04시부터 26일 08시까지 (UTC)
시정: 3000m
고도 200ft 상공 구름 조금
고도 1000ft 상공 구름 많음
곳곳에 안개
전환 중
26일 11시부터 26일 14시까지 (UTC)
남남동10kt
시정 10km 이상
고도 1500ft 상공 구름 보통
고도 1700ft 상공 구름 조금, 적란운.
고도 7000ft 상공 구름 보통
일시적
26일 19시부터 26일 22시까지 (UTC)
뇌우
전환 중
26일 23시부터 26일 24시까지 (UTC)
6kt

TAF: SLLP 252200Z 2600/2624 08007KT 9999 SCT015 FEW017CB BKN070 TX13/2619Z TN05/2610Z BECMG 2604/2608 3000E BCFG FEW002 BKN010 BECMG 2611/2614 15010KT 9999 NSW SCT015 FEW017CB SCT070 TEMPO 2619/2622 TS BECMG 2623/2624 09006KT

4,000개 이상의 공항 관측 자료 및 예보 (METAR 및 TAF 보고).

지도상에서 검색 가능한 기상관측소가 노란 점과 빨간 점으로 표시되어 있습니다.

기상관측소 명을 보려면 표시 위로 마우스를 이동하세요.

날씨 관측과 예보를 보려면 클릭하세요.

지도 변경 : 확대하려면 엑스 표시가 있는 녹색 버튼, 축소하려면 빼기 표시가 있는 녹색 버튼, 다음 페이지의 지도를 보려면 녹색 화살표를 클릭하세요.


METAR-TAF: